< < Back
Terminal Aerodrome Forecast


Current Version              Previous Versions:   1  2  3  4  5  6  7  8  9  

Terminal Aerodrome Forecast

941
FTUS44 KMOB 040307 AAB
TAFMOB
TAF AMD
KMOB 040307Z 0403/0424 15004KT P6SM FEW005 BKN040
     FM040800 15006KT 1/4SM FG OVC004
     FM041500 18011KT 4SM BR OVC007
     FM042100 17011KT P6SM BKN025=

Latest METAR

384
SAUS80 KWBC 042000
MTRMOB
METAR KMOB 041956Z 18014G21KT 7SM SCT022CB BKN050 OVC070 24/20 A2997 RMK
AO2 SLP145 CB E-SE MOV NE T02440200


USA.gov is the U.S. government's official web portal to all federal, state and local government web resources and services.